Time;durP1;ratioP1;P1;durP2;ratioP2;P2;SDS_P1;SDS_P2;PMS_P1;PMS_P2;Temp;Humidity;BMP_temperature;BMP_pressure;BME280_temperature;BME280_humidity;BME280_pressure;Samples;Min_cycle;Max_cycle;Signal;HPM_P1;HPM_P2
2022/03/01 00:00:42;;;;;;;62.25;31.15;;;;;;;;;;5095636;28;20044;-44
2022/03/01 00:03:08;;;;;;;35.83;17.38;;;;;;;;;;5096007;28;20024;-46
2022/03/01 00:05:34;;;;;;;28.40;13.77;;;;;;;;;;5096304;28;20032;-46
2022/03/01 00:08:00;;;;;;;29.48;15.23;;;;;;;;;;5095915;28;20531;-45
2022/03/01 00:10:27;;;;;;;42.35;21.90;;;;;;;;;;5095941;28;20028;-45
2022/03/01 00:12:53;;;;;;;24.23;12.48;;;;;;;;;;5095715;28;20111;-44
2022/03/01 00:15:19;;;;;;;21.38;12.95;;;;;;;;;;5095823;28;20443;-44
2022/03/01 00:17:45;;;;;;;24.05;13.63;;;;;;;;;;5095862;28;20024;-44
2022/03/01 00:20:12;;;;;;;27.52;12.05;;;;;;;;;;5082203;28;20039;-44
2022/03/01 00:22:38;;;;;;;21.85;13.38;;;;;;;;;;5075381;28;20160;-46
2022/03/01 00:25:04;;;;;;;18.25;11.05;;;;;;;;;;5075512;28;20021;-46
2022/03/01 00:27:30;;;;;;;13.10;7.78;;;;;;;;;;5075340;28;20024;-46
2022/03/01 00:29:56;;;;;;;23.25;13.35;;;;;;;;;;5075070;28;20032;-46
2022/03/01 00:32:22;;;;;;;20.13;11.48;;;;;;;;;;5075429;28;20042;-45
2022/03/01 00:34:48;;;;;;;19.95;11.32;;;;;;;;;;5075064;28;20480;-45
2022/03/01 00:37:14;;;;;;;20.85;10.23;;;;;;;;;;5075241;28;20059;-44
2022/03/01 00:39:40;;;;;;;11.63;8.32;;;;;;;;;;5075555;28;20035;-46
2022/03/01 00:42:06;;;;;;;14.82;8.73;;;;;;;;;;5075085;28;20094;-47
2022/03/01 00:44:33;;;;;;;18.77;9.82;;;;;;;;;;5074849;28;20104;-50
2022/03/01 00:46:59;;;;;;;19.90;10.30;;;;;;;;;;5074957;28;20024;-46
2022/03/01 00:49:25;;;;;;;19.92;11.63;;;;;;;;;;5075124;28;20029;-47
2022/03/01 00:51:51;;;;;;;18.48;9.23;;;;;;;;;;5075063;28;20044;-47
2022/03/01 00:54:17;;;;;;;16.85;10.13;;;;;;;;;;5074783;28;20035;-46
2022/03/01 00:56:43;;;;;;;14.20;8.40;;;;;;;;;;5074695;28;20456;-46
2022/03/01 00:59:09;;;;;;;22.67;13.95;;;;;;;;;;5074587;28;20021;-46
2022/03/01 01:01:35;;;;;;;14.90;9.70;;;;;;;;;;5073696;28;20070;-45
2022/03/01 01:04:01;;;;;;;17.92;10.88;;;;;;;;;;5074593;28;20104;-45
2022/03/01 01:06:28;;;;;;;13.13;8.63;;;;;;;;;;5074505;28;20025;-45
2022/03/01 01:08:54;;;;;;;14.55;8.75;;;;;;;;;;5074649;28;20028;-45
2022/03/01 01:11:20;;;;;;;13.93;9.10;;;;;;;;;;5074433;28;20016;-46
2022/03/01 01:13:46;;;;;;;14.55;8.35;;;;;;;;;;5074389;28;20058;-50
2022/03/01 01:16:12;;;;;;;19.15;10.32;;;;;;;;;;5074421;28;20082;-50
2022/03/01 01:18:43;;;;;;;13.15;7.80;;;;;;;;;;5074521;28;20025;-46
2022/03/01 01:21:10;;;;;;;14.68;8.10;;;;;;;;;;5074377;28;20017;-47
2022/03/01 01:23:36;;;;;;;11.20;7.15;;;;;;;;;;5074278;28;20029;-47
2022/03/01 01:26:02;;;;;;;14.57;7.35;;;;;;;;;;5074194;28;20023;-46
2022/03/01 01:28:28;;;;;;;14.73;8.70;;;;;;;;;;5074046;28;20025;-46
2022/03/01 01:30:54;;;;;;;14.43;7.70;;;;;;;;;;5073867;28;20473;-50
2022/03/01 01:33:20;;;;;;;12.75;7.13;;;;;;;;;;5074022;28;20033;-46
2022/03/01 01:35:46;;;;;;;10.77;6.88;;;;;;;;;;5074136;28;20024;-46
2022/03/01 01:38:12;;;;;;;10.48;5.75;;;;;;;;;;5056122;28;20036;-47
2022/03/01 01:40:38;;;;;;;14.20;7.32;;;;;;;;;;5073888;28;20047;-46
2022/03/01 01:43:07;;;;;;;16.23;7.63;;;;;;;;;;5073797;28;20021;-49
2022/03/01 01:45:34;;;;;;;14.80;8.07;;;;;;;;;;5073658;28;20597;-48
2022/03/01 01:48:01;;;;;;;15.00;8.23;;;;;;;;;;5073879;28;20020;-46
2022/03/01 01:50:28;;;;;;;11.93;7.13;;;;;;;;;;5073845;28;20016;-48
2022/03/01 01:52:55;;;;;;;10.98;7.40;;;;;;;;;;5073812;28;20108;-46
2022/03/01 01:55:21;;;;;;;12.23;7.45;;;;;;;;;;5055267;28;20396;-50
2022/03/01 01:57:48;;;;;;;13.32;7.35;;;;;;;;;;5073697;28;20032;-50
2022/03/01 02:00:15;;;;;;;14.00;6.97;;;;;;;;;;5073162;28;20059;-47
2022/03/01 02:02:42;;;;;;;12.98;7.80;;;;;;;;;;5073990;28;20468;-47
2022/03/01 02:05:08;;;;;;;14.32;7.50;;;;;;;;;;5073683;28;20055;-50
2022/03/01 02:07:35;;;;;;;9.73;6.25;;;;;;;;;;5073456;28;20055;-51
2022/03/01 02:10:01;;;;;;;16.58;7.68;;;;;;;;;;5073576;28;20025;-47
2022/03/01 02:12:27;;;;;;;13.73;6.50;;;;;;;;;;5073364;28;20024;-47
2022/03/01 02:14:53;;;;;;;11.27;6.63;;;;;;;;;;5073312;28;20396;-51
2022/03/01 02:17:20;;;;;;;11.25;6.90;;;;;;;;;;5073155;28;20030;-46
2022/03/01 02:19:49;;;;;;;16.75;10.80;;;;;;;;;;5073195;28;20074;-47
2022/03/01 02:22:15;;;;;;;22.77;15.50;;;;;;;;;;5073350;28;20028;-45
2022/03/01 02:24:41;;;;;;;45.38;31.00;;;;;;;;;;5073256;28;20447;-44
2022/03/01 02:27:07;;;;;;;27.95;15.82;;;;;;;;;;5073258;28;20071;-44
2022/03/01 02:29:34;;;;;;;14.20;8.40;;;;;;;;;;5073075;28;20024;-46
2022/03/01 02:32:01;;;;;;;11.32;6.45;;;;;;;;;;5073396;28;20103;-45
2022/03/01 02:34:27;;;;;;;12.27;6.63;;;;;;;;;;5072963;28;20068;-46
2022/03/01 02:36:54;;;;;;;11.05;6.53;;;;;;;;;;5073146;28;20474;-52
2022/03/01 02:39:20;;;;;;;9.65;6.18;;;;;;;;;;5072912;28;20480;-46
2022/03/01 02:41:46;;;;;;;14.10;6.47;;;;;;;;;;5073268;28;20095;-53
2022/03/01 02:44:13;;;;;;;11.15;7.32;;;;;;;;;;5072931;28;20472;-49
2022/03/01 02:46:40;;;;;;;10.57;6.68;;;;;;;;;;5073114;28;20081;-53
2022/03/01 02:49:07;;;;;;;9.82;6.20;;;;;;;;;;5073045;28;20442;-46
2022/03/01 02:51:34;;;;;;;12.18;7.15;;;;;;;;;;5073001;28;20017;-54
2022/03/01 02:54:00;;;;;;;9.57;5.85;;;;;;;;;;5072793;28;20037;-46
2022/03/01 02:56:26;;;;;;;11.43;6.80;;;;;;;;;;5073030;28;20484;-45
2022/03/01 02:58:55;;;;;;;12.35;6.85;;;;;;;;;;5072690;28;20042;-53
2022/03/01 03:01:22;;;;;;;9.48;6.57;;;;;;;;;;5051123;28;20485;-46
2022/03/01 03:03:48;;;;;;;9.68;6.03;;;;;;;;;;5052941;28;20044;-47
2022/03/01 03:06:14;;;;;;;11.35;5.72;;;;;;;;;;5052844;28;20511;-48
2022/03/01 03:08:40;;;;;;;12.82;6.25;;;;;;;;;;5053009;28;20389;-49
2022/03/01 03:11:07;;;;;;;18.00;10.23;;;;;;;;;;5052817;28;20052;-46
2022/03/01 03:13:33;;;;;;;18.67;11.13;;;;;;;;;;5052786;28;20189;-46
2022/03/01 03:15:59;;;;;;;13.18;8.02;;;;;;;;;;5052572;28;20499;-47
2022/03/01 03:18:25;;;;;;;20.10;9.63;;;;;;;;;;5052888;28;20028;-46
2022/03/01 03:20:52;;;;;;;21.45;10.02;;;;;;;;;;5052858;28;20039;-50
2022/03/01 03:23:18;;;;;;;13.18;7.00;;;;;;;;;;5052882;28;20048;-53
2022/03/01 03:25:46;;;;;;;15.50;9.40;;;;;;;;;;5054410;28;20086;-53
2022/03/01 03:28:12;;;;;;;13.63;7.90;;;;;;;;;;5056416;28;20503;-53
2022/03/01 03:30:39;;;;;;;11.38;6.82;;;;;;;;;;5056298;28;20116;-53
2022/03/01 03:33:05;;;;;;;11.43;6.32;;;;;;;;;;5056450;28;20032;-52
2022/03/01 03:35:31;;;;;;;13.27;6.78;;;;;;;;;;5056491;28;20032;-53
2022/03/01 03:37:57;;;;;;;14.27;8.50;;;;;;;;;;5056301;28;20079;-52
2022/03/01 03:40:23;;;;;;;10.10;6.13;;;;;;;;;;5056336;28;20071;-46
2022/03/01 03:42:49;;;;;;;10.38;6.30;;;;;;;;;;5056375;28;20491;-53
2022/03/01 03:45:15;;;;;;;9.40;6.47;;;;;;;;;;5056002;28;20033;-46
2022/03/01 03:47:42;;;;;;;10.82;6.68;;;;;;;;;;5056211;28;20017;-46
2022/03/01 03:50:09;;;;;;;12.25;6.68;;;;;;;;;;5056077;28;20104;-50
2022/03/01 03:52:36;;;;;;;10.05;5.85;;;;;;;;;;5056166;28;20499;-55
2022/03/01 03:55:02;;;;;;;8.77;5.72;;;;;;;;;;5055955;28;20175;-52
2022/03/01 03:57:28;;;;;;;10.73;5.65;;;;;;;;;;5055895;28;20024;-51
2022/03/01 03:59:54;;;;;;;9.43;5.00;;;;;;;;;;5056239;28;20469;-53
2022/03/01 04:02:22;;;;;;;11.00;5.78;;;;;;;;;;5075977;28;20036;-54
2022/03/01 04:04:49;;;;;;;11.32;5.55;;;;;;;;;;5075941;28;20393;-51
2022/03/01 04:07:15;;;;;;;10.13;5.97;;;;;;;;;;5075887;28;20016;-51
2022/03/01 04:09:41;;;;;;;13.98;5.50;;;;;;;;;;5075633;28;20025;-52
2022/03/01 04:12:07;;;;;;;9.35;5.32;;;;;;;;;;5075884;28;20025;-45
2022/03/01 04:14:33;;;;;;;10.40;5.20;;;;;;;;;;5075539;28;20056;-45
2022/03/01 04:16:59;;;;;;;11.23;6.03;;;;;;;;;;5075561;28;20464;-53
2022/03/01 04:19:25;;;;;;;10.13;6.22;;;;;;;;;;5075647;28;20522;-54
2022/03/01 04:21:51;;;;;;;10.63;5.70;;;;;;;;;;5075582;28;20066;-45
2022/03/01 04:24:18;;;;;;;10.70;5.57;;;;;;;;;;5075473;28;20056;-53
2022/03/01 04:26:44;;;;;;;8.30;5.20;;;;;;;;;;5056914;28;20028;-45
2022/03/01 04:29:10;;;;;;;11.98;5.43;;;;;;;;;;5075330;28;20025;-52
2022/03/01 04:31:36;;;;;;;11.23;5.55;;;;;;;;;;5079481;28;20028;-48
2022/03/01 04:34:02;;;;;;;9.80;5.22;;;;;;;;;;5080555;28;20043;-52
2022/03/01 04:36:28;;;;;;;9.10;5.30;;;;;;;;;;5074531;28;20096;-46
2022/03/01 04:38:55;;;;;;;11.60;5.38;;;;;;;;;;5074952;28;20460;-54
2022/03/01 04:41:21;;;;;;;11.60;5.43;;;;;;;;;;5075274;28;20476;-53
2022/03/01 04:43:47;;;;;;;13.98;7.05;;;;;;;;;;5075003;28;20029;-50
2022/03/01 04:46:15;;;;;;;19.60;8.13;;;;;;;;;;5074497;28;20028;-50
2022/03/01 04:48:41;;;;;;;13.63;6.90;;;;;;;;;;5075710;28;20073;-50
2022/03/01 04:51:10;;;;;;;33.13;17.42;;;;;;;;;;5074315;28;20020;-49
2022/03/01 04:53:36;;;;;;;19.27;10.55;;;;;;;;;;5075275;28;20034;-45
2022/03/01 04:56:02;;;;;;;19.92;11.00;;;;;;;;;;5074168;28;20024;-52
2022/03/01 04:58:28;;;;;;;24.13;11.95;;;;;;;;;;5071447;28;20020;-52
2022/03/01 05:00:55;;;;;;;21.73;10.75;;;;;;;;;;5073772;28;20515;-50
2022/03/01 05:03:22;;;;;;;25.20;10.60;;;;;;;;;;5074473;28;20039;-53
2022/03/01 05:05:48;;;;;;;20.23;9.63;;;;;;;;;;5074627;28;20031;-46
2022/03/01 05:08:14;;;;;;;12.63;7.03;;;;;;;;;;5074569;28;20524;-50
2022/03/01 05:10:40;;;;;;;12.45;7.07;;;;;;;;;;5074437;28;20028;-46
2022/03/01 05:13:06;;;;;;;16.05;8.35;;;;;;;;;;5074443;28;20051;-46
2022/03/01 05:15:32;;;;;;;12.88;7.57;;;;;;;;;;5074290;28;20043;-46
2022/03/01 05:17:59;;;;;;;21.13;7.55;;;;;;;;;;5074219;28;20023;-49
2022/03/01 05:20:26;;;;;;;16.13;6.78;;;;;;;;;;5074562;28;20035;-52
2022/03/01 05:22:53;;;;;;;15.93;6.78;;;;;;;;;;5074419;28;20024;-53
2022/03/01 05:25:20;;;;;;;15.38;7.70;;;;;;;;;;5074242;28;20020;-53
2022/03/01 05:27:48;;;;;;;13.05;6.70;;;;;;;;;;5074095;28;20105;-55
2022/03/01 05:30:15;;;;;;;14.35;6.60;;;;;;;;;;5073981;28;20035;-53
2022/03/01 05:32:44;;;;;;;9.35;6.20;;;;;;;;;;5074161;28;20464;-54
2022/03/01 05:35:11;;;;;;;12.68;6.97;;;;;;;;;;5074086;28;20040;-51
2022/03/01 05:37:38;;;;;;;14.43;6.35;;;;;;;;;;5073991;28;20020;-54
2022/03/01 05:40:05;;;;;;;11.13;6.15;;;;;;;;;;5074090;28;20031;-46
2022/03/01 05:42:31;;;;;;;21.95;9.93;;;;;;;;;;5074448;28;20016;-46
2022/03/01 05:44:59;;;;;;;21.42;9.25;;;;;;;;;;5073861;28;20120;-49
2022/03/01 05:47:26;;;;;;;12.52;6.82;;;;;;;;;;5073824;28;20157;-49
2022/03/01 05:49:52;;;;;;;18.02;7.93;;;;;;;;;;5073704;28;20060;-49
2022/03/01 05:52:18;;;;;;;14.75;7.18;;;;;;;;;;5073724;28;20025;-47
2022/03/01 05:54:44;;;;;;;14.95;8.48;;;;;;;;;;5073694;28;20488;-52
2022/03/01 05:57:10;;;;;;;15.95;8.30;;;;;;;;;;5073558;28;20028;-51
2022/03/01 05:59:36;;;;;;;26.73;12.93;;;;;;;;;;5073233;28;20032;-53
2022/03/01 06:02:03;;;;;;;19.83;10.10;;;;;;;;;;5073267;28;20630;-49
2022/03/01 06:04:29;;;;;;;35.30;14.02;;;;;;;;;;5073511;28;20028;-52
2022/03/01 06:06:55;;;;;;;16.77;9.13;;;;;;;;;;5073581;28;20164;-48
2022/03/01 06:09:21;;;;;;;23.63;11.55;;;;;;;;;;5073416;28;20029;-45
2022/03/01 06:11:47;;;;;;;21.02;8.13;;;;;;;;;;5073632;28;20484;-45
2022/03/01 06:14:13;;;;;;;13.57;7.25;;;;;;;;;;5073108;28;20036;-54
2022/03/01 06:16:40;;;;;;;14.85;7.47;;;;;;;;;;5073471;28;20078;-47
2022/03/01 06:19:06;;;;;;;19.13;7.93;;;;;;;;;;5073379;28;20352;-46
2022/03/01 06:21:33;;;;;;;19.60;8.20;;;;;;;;;;5073384;28;20031;-46
2022/03/01 06:24:00;;;;;;;12.93;7.57;;;;;;;;;;5073367;28;20021;-52
2022/03/01 06:26:26;;;;;;;15.60;8.63;;;;;;;;;;5073275;28;20048;-46
2022/03/01 06:28:52;;;;;;;17.55;7.72;;;;;;;;;;5073394;28;20021;-46
2022/03/01 06:31:18;;;;;;;19.38;9.02;;;;;;;;;;5073332;28;20061;-56
2022/03/01 06:33:44;;;;;;;17.73;9.45;;;;;;;;;;5072962;28;20036;-47
2022/03/01 06:36:10;;;;;;;18.52;10.75;;;;;;;;;;5073249;28;20032;-55
2022/03/01 06:38:36;;;;;;;16.55;9.13;;;;;;;;;;5073018;28;20025;-55
2022/03/01 06:41:05;;;;;;;16.45;8.02;;;;;;;;;;5073044;28;20024;-56
2022/03/01 06:43:31;;;;;;;17.10;8.48;;;;;;;;;;5073211;28;20112;-46
2022/03/01 06:45:57;;;;;;;14.20;8.13;;;;;;;;;;5072932;28;20052;-52
2022/03/01 06:48:23;;;;;;;18.40;8.38;;;;;;;;;;5072754;28;20032;-48
2022/03/01 06:50:49;;;;;;;17.50;9.02;;;;;;;;;;5072996;28;20024;-46
2022/03/01 06:53:17;;;;;;;15.73;8.50;;;;;;;;;;5073033;28;20032;-46
2022/03/01 06:55:44;;;;;;;12.23;7.63;;;;;;;;;;5073181;28;20052;-47
2022/03/01 06:58:10;;;;;;;15.00;7.47;;;;;;;;;;5072906;28;20027;-47
2022/03/01 07:00:36;;;;;;;13.60;7.70;;;;;;;;;;5074362;28;20173;-51
2022/03/01 07:03:02;;;;;;;13.30;7.40;;;;;;;;;;5077097;28;20491;-55
2022/03/01 07:05:28;;;;;;;15.50;7.57;;;;;;;;;;5077216;28;20017;-46
2022/03/01 07:07:54;;;;;;;15.05;7.93;;;;;;;;;;5076880;28;20028;-46
2022/03/01 07:10:20;;;;;;;15.38;8.63;;;;;;;;;;5076821;28;20020;-48
2022/03/01 07:12:48;;;;;;;13.50;8.30;;;;;;;;;;5076682;28;20496;-47
2022/03/01 07:15:14;;;;;;;12.20;8.23;;;;;;;;;;5076535;28;20024;-47
2022/03/01 07:17:42;;;;;;;17.65;8.30;;;;;;;;;;5076548;28;20016;-49
2022/03/01 07:20:09;;;;;;;20.55;12.48;;;;;;;;;;5076526;28;20036;-47
2022/03/01 07:22:35;;;;;;;17.02;8.90;;;;;;;;;;5076426;28;20103;-54
2022/03/01 07:25:01;;;;;;;14.52;8.15;;;;;;;;;;5076692;28;20021;-46
2022/03/01 07:27:28;;;;;;;13.18;7.03;;;;;;;;;;5076453;28;20029;-53
2022/03/01 07:29:54;;;;;;;14.43;7.63;;;;;;;;;;5076856;28;20444;-53
2022/03/01 07:32:20;;;;;;;8.45;6.20;;;;;;;;;;5076512;28;20024;-46
2022/03/01 07:34:46;;;;;;;9.18;6.38;;;;;;;;;;5076224;28;20086;-47
2022/03/01 07:37:12;;;;;;;13.07;7.32;;;;;;;;;;5076392;28;20465;-53
2022/03/01 07:39:38;;;;;;;10.75;6.90;;;;;;;;;;5076528;28;20033;-53
2022/03/01 07:42:05;;;;;;;10.57;6.70;;;;;;;;;;5076113;28;20535;-54
2022/03/01 07:44:34;;;;;;;12.95;7.45;;;;;;;;;;5076088;28;20109;-55
2022/03/01 07:47:00;;;;;;;9.60;6.80;;;;;;;;;;5076230;28;20095;-52
2022/03/01 07:49:26;;;;;;;9.20;6.38;;;;;;;;;;5075940;28;20059;-55
2022/03/01 07:51:54;;;;;;;8.45;6.85;;;;;;;;;;5076339;28;20367;-47
2022/03/01 07:54:20;;;;;;;7.30;6.18;;;;;;;;;;5075728;28;20036;-55
2022/03/01 07:56:46;;;;;;;7.57;6.30;;;;;;;;;;5075791;28;20056;-50
2022/03/01 07:59:12;;;;;;;11.50;6.60;;;;;;;;;;5076093;28;20029;-47
2022/03/01 08:01:39;;;;;;;11.15;7.60;;;;;;;;;;5075493;28;20044;-54
2022/03/01 08:04:07;;;;;;;10.15;6.63;;;;;;;;;;5075763;28;20020;-54
2022/03/01 08:06:33;;;;;;;9.82;6.47;;;;;;;;;;5075792;28;20047;-54
2022/03/01 08:09:01;;;;;;;9.18;6.07;;;;;;;;;;5075833;28;20021;-54
2022/03/01 08:11:27;;;;;;;9.93;6.18;;;;;;;;;;5075630;28;20031;-54
2022/03/01 08:13:54;;;;;;;8.98;7.05;;;;;;;;;;5075579;28;20036;-53
2022/03/01 08:16:20;;;;;;;11.10;7.93;;;;;;;;;;5075748;28;20112;-53
2022/03/01 08:18:46;;;;;;;12.30;7.65;;;;;;;;;;5075573;28;20031;-55
2022/03/01 08:21:12;;;;;;;12.70;10.18;;;;;;;;;;5075542;28;20021;-55
2022/03/01 08:23:39;;;;;;;10.32;8.43;;;;;;;;;;5075598;28;20032;-55
2022/03/01 08:26:07;;;;;;;9.35;7.22;;;;;;;;;;5057426;28;20024;-48
2022/03/01 08:28:33;;;;;;;10.35;8.40;;;;;;;;;;5075370;28;20050;-56
2022/03/01 08:31:00;;;;;;;9.48;8.48;;;;;;;;;;5075390;28;20029;-47
2022/03/01 08:33:26;;;;;;;22.63;15.13;;;;;;;;;;5075297;28;20037;-54
2022/03/01 08:35:55;;;;;;;16.08;9.93;;;;;;;;;;5075424;28;20502;-56
2022/03/01 08:38:22;;;;;;;12.45;8.35;;;;;;;;;;5075477;28;20409;-54
2022/03/01 08:40:50;;;;;;;23.52;12.60;;;;;;;;;;5075317;28;20067;-56
2022/03/01 08:43:16;;;;;;;37.72;16.25;;;;;;;;;;5075080;28;20025;-53
2022/03/01 08:45:43;;;;;;;42.75;19.05;;;;;;;;;;5075694;28;20024;-56
2022/03/01 08:48:09;;;;;;;29.33;13.02;;;;;;;;;;5074972;28;20123;-55
2022/03/01 08:50:35;;;;;;;20.35;10.43;;;;;;;;;;5056673;28;20067;-55
2022/03/01 08:53:02;;;;;;;9.40;5.82;;;;;;;;;;5074881;28;20028;-53
2022/03/01 08:55:28;;;;;;;10.00;5.63;;;;;;;;;;5074957;28;20040;-53
2022/03/01 08:57:54;;;;;;;14.65;7.50;;;;;;;;;;5074818;28;20020;-55
2022/03/01 09:00:21;;;;;;;9.82;5.97;;;;;;;;;;5074501;28;20079;-49
2022/03/01 09:02:47;;;;;;;8.18;5.55;;;;;;;;;;5074918;28;20082;-53
2022/03/01 09:05:13;;;;;;;14.18;8.82;;;;;;;;;;5074613;28;20024;-54
2022/03/01 09:07:40;;;;;;;19.58;11.73;;;;;;;;;;5074761;28;20023;-50
2022/03/01 09:10:07;;;;;;;10.15;6.60;;;;;;;;;;5074560;28;20035;-54
2022/03/01 09:12:33;;;;;;;13.15;6.53;;;;;;;;;;5074569;28;20024;-53
2022/03/01 09:14:59;;;;;;;10.35;5.35;;;;;;;;;;5074421;28;20040;-56
2022/03/01 09:17:25;;;;;;;8.68;5.50;;;;;;;;;;5056369;28;20063;-53
2022/03/01 09:19:51;;;;;;;10.57;6.75;;;;;;;;;;5074655;28;20025;-50
2022/03/01 09:22:18;;;;;;;10.35;6.18;;;;;;;;;;5074247;28;20104;-50
2022/03/01 09:24:44;;;;;;;8.23;5.80;;;;;;;;;;5074156;28;20380;-53
2022/03/01 09:27:10;;;;;;;12.27;6.40;;;;;;;;;;5074295;28;20469;-56
2022/03/01 09:29:37;;;;;;;9.43;6.55;;;;;;;;;;5074189;28;20492;-52
2022/03/01 09:32:03;;;;;;;11.32;6.60;;;;;;;;;;5074133;28;20477;-48
2022/03/01 09:34:29;;;;;;;14.40;7.20;;;;;;;;;;5074317;28;20071;-53
2022/03/01 09:36:56;;;;;;;13.38;6.68;;;;;;;;;;5074097;28;20362;-49
2022/03/01 09:39:22;;;;;;;12.75;6.30;;;;;;;;;;5074047;28;20028;-48
2022/03/01 09:41:49;;;;;;;10.88;6.90;;;;;;;;;;5074121;28;20029;-52
2022/03/01 09:44:16;;;;;;;13.93;8.05;;;;;;;;;;5073993;28;20513;-51
2022/03/01 09:46:43;;;;;;;16.15;6.70;;;;;;;;;;5073832;28;20032;-51
2022/03/01 09:49:09;;;;;;;8.25;5.68;;;;;;;;;;5073817;28;20020;-48
2022/03/01 09:51:37;;;;;;;8.90;5.60;;;;;;;;;;5074073;28;20055;-54
2022/03/01 09:54:03;;;;;;;12.38;5.97;;;;;;;;;;5073829;28;20033;-50
2022/03/01 09:56:29;;;;;;;8.20;5.40;;;;;;;;;;5073706;28;20031;-51
2022/03/01 09:58:57;;;;;;;9.55;5.45;;;;;;;;;;5073646;28;20036;-47
2022/03/01 10:01:26;;;;;;;9.38;5.32;;;;;;;;;;5073192;28;20055;-45
2022/03/01 10:03:53;;;;;;;10.43;5.40;;;;;;;;;;5073438;28;20042;-52
2022/03/01 10:06:21;;;;;;;7.70;5.53;;;;;;;;;;5073771;28;20502;-45
2022/03/01 10:08:53;;;;;;;10.82;6.20;;;;;;;;;;5073991;28;20023;-48
2022/03/01 10:11:19;;;;;;;9.98;5.30;;;;;;;;;;5073727;28;20024;-47
2022/03/01 10:13:45;;;;;;;10.45;6.38;;;;;;;;;;5073316;28;20070;-46
2022/03/01 10:16:15;;;;;;;10.23;5.32;;;;;;;;;;5073285;28;20069;-45
2022/03/01 10:18:58;;;;;;;13.10;8.15;;;;;;;;;;5073268;28;20021;-47
2022/03/01 10:21:26;;;;;;;12.52;8.52;;;;;;;;;;5073700;28;20056;-50
2022/03/01 10:23:58;;;;;;;10.38;5.88;;;;;;;;;;5073370;28;20389;-52
2022/03/01 10:26:37;;;;;;;11.07;6.22;;;;;;;;;;5073139;28;20098;-50
2022/03/01 10:29:04;;;;;;;8.25;5.03;;;;;;;;;;5073396;28;20039;-46
2022/03/01 10:31:32;;;;;;;7.60;5.35;;;;;;;;;;5073114;28;20086;-51
2022/03/01 10:34:03;;;;;;;7.53;5.00;;;;;;;;;;5072646;28;20032;-52
2022/03/01 10:36:29;;;;;;;8.27;4.00;;;;;;;;;;5072630;28;20025;-51
2022/03/01 10:38:56;;;;;;;25.92;12.52;;;;;;;;;;5072907;28;20828;-55
2022/03/01 10:41:26;;;;;;;25.88;13.13;;;;;;;;;;5073753;28;20078;-47
2022/03/01 10:43:54;;;;;;;10.65;7.03;;;;;;;;;;5073014;28;20052;-46
2022/03/01 10:46:20;;;;;;;10.15;6.47;;;;;;;;;;5072969;28;20028;-53
2022/03/01 10:48:46;;;;;;;59.53;28.90;;;;;;;;;;5073054;28;20389;-50
2022/03/01 10:51:13;;;;;;;14.85;8.93;;;;;;;;;;5073207;28;20121;-51
2022/03/01 10:53:45;;;;;;;10.63;6.80;;;;;;;;;;5072879;28;20024;-47
2022/03/01 10:56:13;;;;;;;10.80;6.07;;;;;;;;;;5073074;28;20084;-46
2022/03/01 10:58:40;;;;;;;5.55;4.15;;;;;;;;;;5072889;28;20024;-47
2022/03/01 11:01:07;;;;;;;6.38;4.40;;;;;;;;;;5072751;28;20048;-54
2022/03/01 11:03:34;;;;;;;10.45;4.97;;;;;;;;;;5072766;28;20031;-50
2022/03/01 11:06:00;;;;;;;9.50;4.70;;;;;;;;;;5072900;28;20441;-50
2022/03/01 11:08:32;;;;;;;7.85;4.80;;;;;;;;;;5072674;28;20032;-54
2022/03/01 11:10:58;;;;;;;;;;;;;;;;;;5073179;28;20111;-48
2022/03/01 11:13:25;;;;;;;13.20;7.57;;;;;;;;;;5073080;28;20360;-55
2022/03/01 11:15:59;;;;;;;11.73;7.20;;;;;;;;;;5072637;28;20116;-51
2022/03/01 11:18:57;;;;;;;10.57;7.00;;;;;;;;;;5072587;28;20024;-51
2022/03/01 11:21:24;;;;;;;7.30;5.45;;;;;;;;;;4972056;28;20123;-54
2022/03/01 11:23:52;;;;;;;15.73;8.73;;;;;;;;;;4971901;28;20078;-49
2022/03/01 11:26:19;;;;;;;11.48;7.20;;;;;;;;;;4971974;28;20089;-48
2022/03/01 11:28:52;;;;;;;10.05;6.20;;;;;;;;;;4972154;28;20440;-48
2022/03/01 11:31:23;;;;;;;5.93;4.13;;;;;;;;;;4971828;28;20578;-46
2022/03/01 11:33:55;;;;;;;7.40;5.13;;;;;;;;;;4971861;28;20035;-50
2022/03/01 11:36:22;;;;;;;8.60;6.13;;;;;;;;;;4971993;28;20863;-45
2022/03/01 11:38:48;;;;;;;9.05;5.82;;;;;;;;;;4955591;28;20043;-46
2022/03/01 11:41:19;;;;;;;8.90;5.95;;;;;;;;;;4971884;28;20380;-47
2022/03/01 11:43:54;;;;;;;12.30;6.60;;;;;;;;;;4971821;28;20101;-54
2022/03/01 11:46:20;;;;;;;11.88;6.40;;;;;;;;;;4972691;28;20444;-46
2022/03/01 11:48:53;;;;;;;15.75;9.32;;;;;;;;;;4975381;28;20038;-53
2022/03/01 11:51:34;;;;;;;24.08;11.55;;;;;;;;;;4975207;28;20027;-53
2022/03/01 11:54:06;;;;;;;20.65;11.32;;;;;;;;;;4975074;28;20027;-54
2022/03/01 11:56:32;;;;;;;;;;;;;;;;;;4975496;28;20034;-53
2022/03/01 11:59:03;;;;;;;10.57;5.68;;;;;;;;;;5072680;28;20436;-50
2022/03/01 12:01:32;;;;;;;11.70;6.18;;;;;;;;;;5075600;28;20427;-53
2022/03/01 12:04:00;;;;;;;17.45;6.07;;;;;;;;;;5075924;28;20469;-52
2022/03/01 12:06:29;;;;;;;8.63;4.30;;;;;;;;;;5075657;28;20484;-53
2022/03/01 12:08:59;;;;;;;7.05;4.57;;;;;;;;;;5058123;28;20025;-51
2022/03/01 12:11:44;;;;;;;7.97;4.35;;;;;;;;;;5075695;28;20024;-54
2022/03/01 12:14:20;;;;;;;8.60;4.80;;;;;;;;;;5057669;28;20020;-48
2022/03/01 12:16:46;;;;;;;13.20;6.80;;;;;;;;;;5075722;28;20036;-47
2022/03/01 12:19:23;;;;;;;7.95;5.10;;;;;;;;;;5075817;28;20074;-50
2022/03/01 12:21:53;;;;;;;7.35;4.97;;;;;;;;;;5075592;28;20063;-50
2022/03/01 12:24:28;;;;;;;10.40;6.43;;;;;;;;;;5075401;28;20032;-46
2022/03/01 12:26:55;;;;;;;26.17;15.20;;;;;;;;;;5075506;28;20021;-48
2022/03/01 12:29:22;;;;;;;14.95;8.18;;;;;;;;;;5075431;28;20024;-50
2022/03/01 12:32:02;;;;;;;9.57;6.30;;;;;;;;;;5075472;28;20024;-47
2022/03/01 12:34:29;;;;;;;10.10;6.75;;;;;;;;;;5075048;28;20029;-47
2022/03/01 12:36:56;;;;;;;6.97;4.90;;;;;;;;;;5075642;28;20036;-45
2022/03/01 12:39:22;;;;;;;11.13;7.30;;;;;;;;;;5075248;28;20029;-53
2022/03/01 12:41:49;;;;;;;8.85;4.85;;;;;;;;;;5075232;28;20393;-52
2022/03/01 12:44:17;;;;;;;8.90;4.53;;;;;;;;;;5075200;28;20388;-53
2022/03/01 12:46:43;;;;;;;13.82;5.45;;;;;;;;;;5075081;28;20024;-50
2022/03/01 12:49:10;;;;;;;5.65;3.78;;;;;;;;;;5074832;28;20024;-51
2022/03/01 12:51:37;;;;;;;8.23;4.95;;;;;;;;;;5075248;28;20077;-53
2022/03/01 12:54:05;;;;;;;6.55;4.10;;;;;;;;;;5074846;28;20021;-52
2022/03/01 12:56:32;;;;;;;5.43;4.00;;;;;;;;;;5074831;28;20037;-53
2022/03/01 12:59:03;;;;;;;19.05;9.85;;;;;;;;;;5073826;28;20028;-53
2022/03/01 13:01:30;;;;;;;8.00;4.87;;;;;;;;;;5074449;28;20403;-52
2022/03/01 13:03:56;;;;;;;10.10;4.57;;;;;;;;;;5075108;28;20348;-47
2022/03/01 13:06:23;;;;;;;15.20;10.30;;;;;;;;;;5074661;28;20024;-49
2022/03/01 13:08:56;;;;;;;5.80;4.15;;;;;;;;;;5074592;28;20034;-53
2022/03/01 13:11:25;;;;;;;16.90;4.88;;;;;;;;;;5074511;28;20025;-49
2022/03/01 13:13:52;;;;;;;8.52;5.07;;;;;;;;;;5074595;28;20038;-48
2022/03/01 13:16:24;;;;;;;9.18;4.38;;;;;;;;;;5074824;28;20539;-49
2022/03/01 13:18:54;;;;;;;7.25;4.35;;;;;;;;;;5074252;28;20465;-49
2022/03/01 13:21:25;;;;;;;5.35;3.90;;;;;;;;;;5074489;28;20056;-48
2022/03/01 13:23:52;;;;;;;9.40;6.45;;;;;;;;;;5074412;28;20041;-53
2022/03/01 13:26:18;;;;;;;10.48;6.00;;;;;;;;;;5074520;28;20063;-47
2022/03/01 13:28:45;;;;;;;7.00;4.60;;;;;;;;;;5074182;28;20024;-53
2022/03/01 13:31:19;;;;;;;11.05;4.20;;;;;;;;;;5074372;28;20095;-49
2022/03/01 13:33:48;;;;;;;9.38;4.40;;;;;;;;;;5073958;28;20419;-53
2022/03/01 13:36:14;;;;;;;6.65;3.95;;;;;;;;;;5074066;28;20025;-48
2022/03/01 13:38:43;;;;;;;8.48;4.28;;;;;;;;;;5074171;28;20036;-51
2022/03/01 13:41:09;;;;;;;8.75;4.90;;;;;;;;;;5073907;28;20024;-52
2022/03/01 13:43:37;;;;;;;6.10;4.10;;;;;;;;;;5074059;28;20025;-45
2022/03/01 13:46:04;;;;;;;8.18;4.55;;;;;;;;;;5073941;28;20032;-46
2022/03/01 13:48:30;;;;;;;9.38;4.80;;;;;;;;;;5074015;28;20433;-51
2022/03/01 13:51:07;;;;;;;5.45;3.47;;;;;;;;;;5073799;28;20037;-48
2022/03/01 13:53:33;;;;;;;10.93;5.00;;;;;;;;;;5073683;28;20111;-53
2022/03/01 13:56:02;;;;;;;9.82;5.53;;;;;;;;;;5073701;28;20391;-52
2022/03/01 13:58:28;;;;;;;8.35;5.32;;;;;;;;;;5073610;28;20018;-48
2022/03/01 14:00:56;;;;;;;10.50;5.30;;;;;;;;;;5073439;28;20045;-48
2022/03/01 14:03:30;;;;;;;8.90;4.85;;;;;;;;;;5073773;28;20025;-50
2022/03/01 14:05:56;;;;;;;9.70;4.65;;;;;;;;;;5073561;28;20025;-49
2022/03/01 14:08:22;;;;;;;8.40;4.95;;;;;;;;;;5073401;28;20020;-53
2022/03/01 14:10:53;;;;;;;12.30;5.75;;;;;;;;;;5073494;28;20035;-52
2022/03/01 14:13:27;;;;;;;12.63;7.70;;;;;;;;;;5073439;28;20021;-51
2022/03/01 14:16:03;;;;;;;13.25;6.32;;;;;;;;;;5073650;28;20033;-51
2022/03/01 14:18:34;;;;;;;12.73;6.75;;;;;;;;;;5073423;28;20120;-49
2022/03/01 14:21:00;;;;;;;33.90;15.40;;;;;;;;;;5073475;28;20030;-53
2022/03/01 14:23:26;;;;;;;62.90;28.15;;;;;;;;;;5073311;28;20077;-53
2022/03/01 14:25:52;;;;;;;91.28;43.75;;;;;;;;;;5073065;28;20037;-51
2022/03/01 14:28:18;;;;;;;105.13;40.83;;;;;;;;;;5073120;28;20021;-46
2022/03/01 14:30:44;;;;;;;67.28;30.88;;;;;;;;;;5073179;28;20024;-52